createdAt,value
2017-07-02T00:00:15.630Z,96.10
2017-07-02T00:02:50.106Z,95.40
2017-07-02T00:05:24.157Z,95.30
2017-07-02T00:07:58.537Z,96.10
2017-07-02T00:10:32.477Z,96.10
2017-07-02T00:13:06.860Z,95.90
2017-07-02T00:15:41.518Z,96.30
2017-07-02T00:18:15.379Z,96.20
2017-07-02T00:20:49.953Z,96.30
2017-07-02T00:23:23.754Z,96.20
2017-07-02T00:25:57.473Z,95.80
2017-07-02T00:28:31.265Z,95.70
2017-07-02T00:31:06.013Z,95.70
2017-07-02T00:33:39.801Z,97.40
2017-07-02T00:36:13.587Z,96.20
2017-07-02T00:38:48.189Z,94.90
2017-07-02T00:41:22.197Z,94.80
2017-07-02T00:43:55.889Z,95.00
2017-07-02T00:46:29.627Z,96.80
2017-07-02T00:49:03.271Z,95.40
2017-07-02T00:51:37.113Z,94.30
2017-07-02T00:54:11.554Z,94.60
2017-07-02T00:56:45.457Z,94.60
2017-07-02T00:59:20.085Z,95.00
2017-07-02T01:01:53.866Z,95.70
2017-07-02T01:04:27.593Z,94.60
2017-07-02T01:07:01.266Z,96.10
2017-07-02T01:09:34.897Z,95.50
2017-07-02T01:12:08.589Z,95.50
2017-07-02T01:14:43.012Z,94.50
2017-07-02T01:17:17.769Z,94.30
2017-07-02T01:19:51.382Z,94.20
2017-07-02T01:22:25.917Z,94.80
2017-07-02T01:24:59.698Z,94.70
2017-07-02T01:27:34.312Z,94.00
2017-07-02T01:30:08.169Z,94.00
2017-07-02T01:32:42.929Z,93.30
2017-07-02T01:35:16.657Z,94.30
2017-07-02T01:37:50.378Z,94.10
2017-07-02T01:40:24.132Z,93.70
2017-07-02T01:42:57.857Z,94.10
2017-07-02T01:45:31.586Z,94.10
2017-07-02T01:48:05.378Z,93.20
2017-07-02T01:50:39.905Z,95.10
2017-07-02T01:53:14.454Z,95.20
2017-07-02T01:55:48.555Z,95.00
2017-07-02T01:58:24.366Z,94.40
2017-07-02T02:01:09.781Z,94.30
2017-07-02T02:03:43.653Z,93.60
2017-07-02T02:06:17.354Z,94.30
2017-07-02T02:08:51.141Z,94.60
2017-07-02T02:11:24.768Z,94.10
2017-07-02T02:13:58.478Z,94.40
2017-07-02T02:16:32.889Z,94.50
2017-07-02T02:19:07.565Z,94.60
2017-07-02T02:21:41.465Z,94.20
2017-07-02T02:24:15.437Z,95.40
2017-07-02T02:26:49.189Z,96.60
2017-07-02T02:29:22.910Z,94.40
2017-07-02T02:31:56.642Z,93.40
2017-07-02T02:34:31.245Z,95.20
2017-07-02T02:37:04.886Z,93.70
2017-07-02T02:39:38.606Z,94.00
2017-07-02T02:42:13.136Z,92.40
2017-07-02T02:44:46.897Z,96.20
2017-07-02T02:47:20.545Z,93.60
2017-07-02T02:49:55.064Z,94.40
2017-07-02T02:52:28.949Z,94.30
2017-07-02T02:55:02.742Z,94.30
2017-07-02T02:57:37.277Z,93.30
2017-07-02T03:00:11.300Z,93.20
2017-07-02T03:02:45.088Z,93.50
2017-07-02T03:05:18.745Z,94.90
2017-07-02T03:07:53.214Z,95.90
2017-07-02T03:10:27.230Z,95.90
2017-07-02T03:13:00.929Z,94.70
2017-07-02T03:15:34.678Z,94.20
2017-07-02T03:18:08.358Z,95.30
2017-07-02T03:20:42.193Z,94.10
2017-07-02T03:23:15.821Z,94.60
2017-07-02T03:25:49.533Z,94.40
2017-07-02T03:28:24.066Z,93.80
2017-07-02T03:30:58.101Z,93.90
2017-07-02T03:33:31.670Z,94.80
2017-07-02T03:36:06.243Z,95.40
2017-07-02T03:38:40.210Z,95.40
2017-07-02T03:41:13.902Z,94.70
2017-07-02T03:43:47.665Z,93.70
2017-07-02T03:46:21.446Z,96.30
2017-07-02T03:48:55.845Z,95.50
2017-07-02T03:51:30.741Z,95.60
2017-07-02T03:54:04.656Z,95.50
2017-07-02T03:56:38.546Z,94.80
2017-07-02T03:59:12.233Z,94.90
2017-07-02T04:01:46.117Z,93.90
2017-07-02T04:04:19.741Z,93.50
2017-07-02T04:06:53.629Z,95.20
2017-07-02T04:09:28.146Z,96.20
2017-07-02T04:12:02.057Z,96.10
2017-07-02T04:14:35.828Z,96.00
2017-07-02T04:17:09.745Z,96.60
2017-07-02T04:19:44.344Z,96.40
2017-07-02T04:22:18.097Z,95.70
2017-07-02T04:24:51.768Z,96.10
2017-07-02T04:27:25.397Z,95.00
2017-07-02T04:29:59.105Z,94.50
2017-07-02T04:32:32.873Z,97.70
2017-07-02T04:35:07.406Z,93.60
2017-07-02T04:37:42.034Z,95.20
2017-07-02T04:40:16.474Z,93.80
2017-07-02T04:42:50.391Z,93.80
2017-07-02T04:45:24.013Z,93.60
2017-07-02T04:47:58.738Z,92.80
2017-07-02T04:50:32.569Z,92.00
2017-07-02T04:53:06.238Z,91.50
2017-07-02T04:55:39.957Z,93.60
2017-07-02T04:58:13.722Z,90.60
2017-07-02T05:00:47.408Z,91.10
2017-07-02T05:03:21.147Z,91.90
2017-07-02T05:05:54.777Z,91.60
2017-07-02T05:08:28.424Z,90.30
2017-07-02T05:11:02.871Z,90.30
2017-07-02T05:13:37.511Z,93.10
2017-07-02T05:16:11.388Z,93.20
2017-07-02T05:18:45.469Z,91.10
2017-07-02T05:21:20.005Z,90.80
2017-07-02T05:23:53.931Z,91.60
2017-07-02T05:26:27.617Z,92.40
2017-07-02T05:29:02.396Z,90.30
2017-07-02T05:31:36.800Z,89.10
2017-07-02T05:34:10.838Z,89.00
2017-07-02T05:36:45.325Z,88.00
2017-07-02T05:39:19.383Z,87.90
2017-07-02T05:41:53.855Z,86.30
2017-07-02T05:44:27.840Z,86.20
2017-07-02T05:47:01.490Z,85.90
2017-07-02T05:49:35.252Z,88.30
2017-07-02T05:52:08.914Z,87.60
2017-07-02T05:54:42.582Z,86.80
2017-07-02T05:57:17.200Z,86.70
2017-07-02T05:59:51.975Z,88.80
2017-07-02T06:02:25.849Z,88.70
2017-07-02T06:04:59.525Z,88.10
2017-07-02T06:07:33.249Z,87.70
2017-07-02T06:10:07.731Z,87.60
2017-07-02T06:12:42.294Z,86.70
2017-07-02T06:15:16.296Z,86.70
2017-07-02T06:17:50.824Z,85.50
2017-07-02T06:20:24.957Z,85.60
2017-07-02T06:23:00.378Z,78.80
2017-07-02T06:25:34.623Z,78.70
2017-07-02T06:28:09.114Z,77.60
2017-07-02T06:30:43.102Z,77.40
2017-07-02T06:33:16.722Z,77.10
2017-07-02T06:35:51.408Z,79.50
2017-07-02T06:38:25.361Z,79.40
2017-07-02T06:40:59.946Z,78.20
2017-07-02T06:43:33.840Z,78.40
2017-07-02T06:46:08.444Z,77.70
2017-07-02T06:48:42.469Z,77.60
2017-07-02T06:51:16.257Z,78.00
2017-07-02T06:53:49.978Z,76.50
2017-07-02T06:56:23.827Z,77.70
2017-07-02T06:58:58.377Z,73.50
2017-07-02T07:01:33.032Z,74.90
2017-07-02T07:04:06.816Z,74.80
2017-07-02T07:06:40.509Z,75.10
2017-07-02T07:09:15.082Z,75.10
2017-07-02T07:11:48.903Z,74.90
2017-07-02T07:14:23.512Z,74.40
2017-07-02T07:16:57.290Z,74.30
2017-07-02T07:19:32.329Z,74.60
2017-07-02T07:22:06.342Z,72.30
2017-07-02T07:24:40.013Z,75.00
2017-07-02T07:27:13.804Z,72.00
2017-07-02T07:29:47.429Z,72.50
2017-07-02T07:32:21.093Z,71.20
2017-07-02T07:34:56.465Z,68.40
2017-07-02T07:37:30.564Z,68.40
2017-07-02T07:40:05.202Z,66.20
2017-07-02T07:42:39.097Z,65.60
2017-07-02T07:45:12.765Z,65.50
2017-07-02T07:47:47.196Z,67.00
2017-07-02T07:50:21.064Z,67.10
2017-07-02T07:52:55.658Z,63.60
2017-07-02T07:55:30.244Z,65.10
2017-07-02T07:58:04.029Z,64.60
2017-07-02T08:00:39.457Z,63.10
2017-07-02T08:03:14.214Z,62.60
2017-07-02T08:05:47.988Z,62.50
2017-07-02T08:08:21.647Z,64.00
2017-07-02T08:10:55.356Z,66.80
2017-07-02T08:13:29.961Z,64.40
2017-07-02T08:16:04.652Z,63.20
2017-07-02T08:18:39.415Z,56.40
2017-07-02T08:21:13.361Z,56.20
2017-07-02T08:23:47.947Z,63.90
2017-07-02T08:26:21.748Z,62.90
2017-07-02T08:28:56.330Z,62.00
2017-07-02T08:31:30.053Z,60.00
2017-07-02T08:34:04.586Z,56.90
2017-07-02T08:36:39.178Z,58.00
2017-07-02T08:39:13.245Z,58.40
2017-07-02T08:41:47.784Z,55.70
2017-07-02T08:44:21.610Z,56.40
2017-07-02T08:46:55.219Z,58.40
2017-07-02T08:49:29.076Z,56.50
2017-07-02T08:52:02.777Z,57.20
2017-07-02T08:54:36.518Z,57.90
2017-07-02T08:57:10.110Z,59.10
2017-07-02T08:59:44.908Z,59.70
2017-07-02T09:02:18.708Z,58.60
2017-07-02T09:04:53.347Z,56.00
2017-07-02T09:07:27.345Z,55.80
2017-07-02T09:10:01.123Z,56.10
2017-07-02T09:12:34.861Z,55.10
2017-07-02T09:15:09.461Z,52.30
2017-07-02T09:17:44.009Z,51.20
2017-07-02T09:20:17.666Z,57.60
2017-07-02T09:22:51.393Z,59.40
2017-07-02T09:25:26.769Z,57.50
2017-07-02T09:28:01.433Z,57.10
2017-07-02T09:30:35.440Z,57.00
2017-07-02T09:33:10.699Z,57.00
2017-07-02T09:35:44.609Z,57.00
2017-07-02T09:38:19.071Z,55.50
2017-07-02T09:40:53.599Z,53.90
2017-07-02T09:43:27.444Z,53.80
2017-07-02T09:46:02.025Z,55.80
2017-07-02T09:48:36.490Z,55.30
2017-07-02T09:51:10.370Z,55.20
2017-07-02T09:53:44.089Z,55.60
2017-07-02T09:56:18.714Z,56.40
2017-07-02T09:58:52.470Z,55.30
2017-07-02T10:01:26.326Z,53.50
2017-07-02T10:04:01.686Z,54.20
2017-07-02T10:06:35.782Z,54.20
2017-07-02T10:09:11.041Z,55.50
2017-07-02T10:11:45.130Z,55.40
2017-07-02T10:14:18.892Z,55.10
2017-07-02T10:16:52.551Z,53.80
2017-07-02T10:19:26.898Z,55.10
2017-07-02T10:22:00.844Z,54.90
2017-07-02T10:24:36.142Z,54.90
2017-07-02T10:27:10.991Z,54.10
2017-07-02T10:29:45.793Z,54.20
2017-07-02T10:32:19.838Z,54.00
2017-07-02T10:34:54.417Z,52.50
2017-07-02T10:37:28.517Z,52.60
2017-07-02T10:40:02.292Z,52.70
2017-07-02T10:42:36.121Z,52.80
2017-07-02T10:45:10.566Z,55.80
2017-07-02T10:47:45.436Z,54.60
2017-07-02T10:50:20.014Z,55.20
2017-07-02T10:52:54.112Z,55.10
2017-07-02T10:55:27.828Z,55.10
2017-07-02T10:58:02.389Z,56.30
2017-07-02T11:00:36.416Z,56.30
2017-07-02T11:03:10.197Z,56.20
2017-07-02T11:05:43.840Z,56.70
2017-07-02T11:08:18.352Z,56.70
2017-07-02T11:10:52.240Z,56.60
2017-07-02T11:13:26.781Z,58.00
2017-07-02T11:16:00.752Z,58.10
2017-07-02T11:18:34.562Z,58.30
2017-07-02T11:21:08.238Z,60.40
2017-07-02T11:23:42.108Z,62.30
2017-07-02T11:26:16.490Z,62.10
2017-07-02T11:28:52.337Z,64.50
2017-07-02T11:31:26.078Z,64.40
2017-07-02T11:33:59.919Z,65.70
2017-07-02T11:36:34.513Z,62.50
2017-07-02T11:39:09.133Z,62.20
2017-07-02T11:41:43.037Z,62.10
2017-07-02T11:44:16.858Z,61.10
2017-07-02T11:46:51.382Z,59.30
2017-07-02T11:49:25.081Z,59.50
2017-07-02T11:51:59.635Z,59.20
2017-07-02T11:54:33.334Z,57.80
2017-07-02T11:57:07.865Z,57.80
2017-07-02T11:59:42.424Z,57.50
2017-07-02T12:02:16.136Z,58.70
2017-07-02T12:04:49.821Z,58.50
2017-07-02T12:07:24.218Z,56.50
2017-07-02T12:09:58.154Z,56.40
2017-07-02T12:12:31.864Z,55.10
2017-07-02T12:15:05.609Z,55.20
2017-07-02T12:17:39.240Z,57.10
2017-07-02T12:20:14.713Z,55.10
2017-07-02T12:22:48.576Z,55.10
2017-07-02T12:25:22.301Z,54.90
2017-07-02T12:27:56.837Z,54.90
2017-07-02T12:30:31.542Z,54.90
2017-07-02T12:33:05.265Z,55.00
2017-07-02T12:35:39.307Z,55.10
2017-07-02T12:38:13.776Z,55.70
2017-07-02T12:40:48.656Z,55.30
2017-07-02T12:43:22.618Z,54.30
2017-07-02T12:45:57.997Z,54.40
2017-07-02T12:48:31.869Z,54.40
2017-07-02T12:51:05.696Z,54.60
2017-07-02T12:53:40.133Z,52.90
2017-07-02T12:56:14.997Z,53.20
2017-07-02T12:58:48.689Z,53.10
2017-07-02T13:01:23.194Z,52.70
2017-07-02T13:03:57.125Z,52.70
2017-07-02T13:06:31.649Z,52.80
2017-07-02T13:09:05.529Z,52.70
2017-07-02T13:11:39.245Z,52.20
2017-07-02T13:14:12.857Z,50.90
2017-07-02T13:16:47.276Z,50.30
2017-07-02T13:19:21.185Z,49.60
2017-07-02T13:21:55.829Z,51.00
2017-07-02T13:24:30.501Z,51.00
2017-07-02T13:27:04.585Z,50.70
2017-07-02T13:29:38.235Z,50.20
2017-07-02T13:32:12.088Z,51.30
2017-07-02T13:34:46.708Z,51.60
2017-07-02T13:37:20.297Z,52.40
2017-07-02T13:39:53.989Z,53.10
2017-07-02T13:42:27.696Z,52.90
2017-07-02T13:45:01.356Z,54.00
2017-07-02T13:47:34.977Z,54.80
2017-07-02T13:50:08.661Z,55.60
2017-07-02T13:52:43.333Z,55.70
2017-07-02T13:55:17.157Z,55.60
2017-07-02T13:57:50.905Z,51.60
2017-07-02T14:00:24.466Z,51.10
2017-07-02T14:02:58.985Z,50.60
2017-07-02T14:05:32.998Z,50.00
2017-07-02T14:08:07.525Z,54.80
2017-07-02T14:10:41.498Z,54.60
2017-07-02T14:13:15.188Z,55.60
2017-07-02T14:15:48.838Z,56.60
2017-07-02T14:18:22.541Z,56.60
2017-07-02T14:20:57.125Z,56.20
2017-07-02T14:23:32.509Z,59.60
2017-07-02T14:26:06.449Z,59.40
2017-07-02T14:28:40.837Z,61.10
2017-07-02T14:31:15.417Z,62.30
2017-07-02T14:33:50.505Z,61.70
2017-07-02T14:36:24.294Z,61.70
2017-07-02T14:38:58.874Z,60.00
2017-07-02T14:41:32.517Z,60.50
2017-07-02T14:44:06.177Z,60.20
2017-07-02T14:46:40.725Z,58.40
2017-07-02T14:49:14.592Z,58.40
2017-07-02T14:51:49.145Z,58.40
2017-07-02T14:54:23.769Z,58.20
2017-07-02T14:56:57.557Z,58.20
2017-07-02T14:59:32.300Z,58.40
2017-07-02T15:02:05.950Z,58.70
2017-07-02T15:04:40.493Z,59.40
2017-07-02T15:07:14.378Z,58.90
2017-07-02T15:09:49.720Z,58.20
2017-07-02T15:12:23.658Z,58.20
2017-07-02T15:14:57.458Z,58.60
2017-07-02T15:17:32.040Z,58.70
2017-07-02T15:20:05.660Z,59.30
2017-07-02T15:22:39.545Z,58.70
2017-07-02T15:25:14.921Z,58.90
2017-07-02T15:27:49.497Z,59.60
2017-07-02T15:30:24.520Z,59.60
2017-07-02T15:32:58.238Z,59.00
2017-07-02T15:35:32.798Z,59.10
2017-07-02T15:38:07.180Z,58.90
2017-07-02T15:40:41.420Z,58.80
2017-07-02T15:43:15.074Z,58.70
2017-07-02T15:45:48.783Z,58.60
2017-07-02T15:48:22.453Z,58.80
2017-07-02T15:50:56.422Z,58.10
2017-07-02T15:53:31.773Z,58.00
2017-07-02T15:56:05.927Z,57.90
2017-07-02T15:58:40.353Z,57.70
2017-07-02T16:01:14.953Z,58.50
2017-07-02T16:03:48.673Z,58.20
2017-07-02T16:06:23.258Z,57.20
2017-07-02T16:08:56.934Z,57.70
2017-07-02T16:11:31.448Z,58.50
2017-07-02T16:14:05.293Z,58.50
2017-07-02T16:16:40.081Z,59.00
2017-07-02T16:19:14.437Z,58.30
2017-07-02T16:21:48.395Z,58.00
2017-07-02T16:24:22.769Z,57.10
2017-07-02T16:26:56.709Z,57.00
2017-07-02T16:29:31.306Z,57.70
2017-07-02T16:32:04.989Z,57.70
2017-07-02T16:34:38.763Z,58.50
2017-07-02T16:37:12.573Z,58.50
2017-07-02T16:39:46.321Z,58.30
2017-07-02T16:42:20.934Z,57.40
2017-07-02T16:44:55.370Z,57.80
2017-07-02T16:47:29.330Z,57.60
2017-07-02T16:50:03.707Z,57.90
2017-07-02T16:52:37.782Z,57.90
2017-07-02T16:55:12.235Z,58.60
2017-07-02T16:57:46.257Z,58.60
2017-07-02T17:00:20.760Z,59.20
2017-07-02T17:02:54.602Z,62.10
2017-07-02T17:05:29.247Z,66.90
2017-07-02T17:08:04.585Z,68.90
2017-07-02T17:10:38.495Z,68.90
2017-07-02T17:13:12.926Z,70.30
2017-07-02T17:15:46.926Z,70.30
2017-07-02T17:18:21.641Z,71.10
2017-07-02T17:20:55.555Z,71.10
2017-07-02T17:23:30.081Z,76.70
2017-07-02T17:26:03.990Z,76.60
2017-07-02T17:28:38.582Z,75.30
2017-07-02T17:31:12.310Z,79.70
2017-07-02T17:33:46.133Z,78.70
2017-07-02T17:36:20.510Z,77.80
2017-07-02T17:38:54.546Z,78.10
2017-07-02T17:41:28.254Z,79.00
2017-07-02T17:44:02.081Z,78.10
2017-07-02T17:46:36.446Z,79.30
2017-07-02T17:49:11.272Z,78.50
2017-07-02T17:51:45.065Z,78.60
2017-07-02T17:54:18.822Z,79.50
2017-07-02T17:56:53.446Z,81.80
2017-07-02T17:59:29.253Z,82.60
2017-07-02T18:02:03.073Z,82.50
2017-07-02T18:04:36.806Z,82.10
2017-07-02T18:07:11.303Z,84.50
2017-07-02T18:09:45.257Z,84.40
2017-07-02T18:12:19.730Z,84.00
2017-07-02T18:14:54.486Z,83.10
2017-07-02T18:17:28.393Z,82.80
2017-07-02T18:20:02.190Z,82.90
2017-07-02T18:22:35.802Z,84.20
2017-07-02T18:25:09.653Z,82.70
2017-07-02T18:27:44.170Z,86.60
2017-07-02T18:30:18.866Z,82.30
2017-07-02T18:32:52.669Z,85.80
2017-07-02T18:35:27.309Z,83.00
2017-07-02T18:38:01.917Z,81.90
2017-07-02T18:40:36.545Z,80.90
2017-07-02T18:43:11.127Z,81.80
2017-07-02T18:45:45.077Z,81.20
2017-07-02T18:48:18.738Z,79.40
2017-07-02T18:50:53.197Z,80.10
2017-07-02T18:53:27.021Z,80.10
2017-07-02T18:56:00.748Z,79.60
2017-07-02T18:58:34.374Z,80.40
2017-07-02T19:01:08.002Z,80.50
2017-07-02T19:03:41.657Z,79.40
2017-07-02T19:06:15.453Z,80.80
2017-07-02T19:08:49.900Z,82.00
2017-07-02T19:11:23.990Z,81.80
2017-07-02T19:13:59.257Z,81.30
2017-07-02T19:16:33.353Z,81.30
2017-07-02T19:19:07.938Z,84.60
2017-07-02T19:21:41.793Z,81.60
2017-07-02T19:24:16.220Z,85.80
2017-07-02T19:26:50.185Z,85.70
2017-07-02T19:29:25.478Z,86.00
2017-07-02T19:32:00.201Z,86.00
2017-07-02T19:34:33.948Z,87.90
2017-07-02T19:37:08.612Z,87.40
2017-07-02T19:39:42.201Z,88.50
2017-07-02T19:42:16.917Z,88.30
2017-07-02T19:44:50.785Z,88.20
2017-07-02T19:47:24.486Z,88.40
2017-07-02T19:49:58.214Z,86.10
2017-07-02T19:52:32.840Z,88.40
2017-07-02T19:55:06.665Z,88.40
2017-07-02T19:57:40.517Z,88.00
2017-07-02T20:00:15.001Z,88.50
2017-07-02T20:02:48.822Z,87.00
2017-07-02T20:05:24.068Z,85.50
2017-07-02T20:07:58.012Z,84.70
2017-07-02T20:10:32.505Z,86.40
2017-07-02T20:13:06.406Z,85.60
2017-07-02T20:15:40.180Z,86.10
2017-07-02T20:18:13.839Z,87.60
2017-07-02T20:20:47.491Z,87.60
2017-07-02T20:23:22.081Z,87.10
2017-07-02T20:25:56.604Z,87.30
2017-07-02T20:28:31.301Z,87.10
2017-07-02T20:31:05.046Z,86.70
2017-07-02T20:33:38.733Z,85.10
2017-07-02T20:36:12.348Z,87.50
2017-07-02T20:38:47.075Z,86.50
2017-07-02T20:41:21.961Z,85.50
2017-07-02T20:43:56.070Z,85.30
2017-07-02T20:46:30.493Z,84.30
2017-07-02T20:49:04.405Z,84.20
2017-07-02T20:51:38.091Z,84.30
2017-07-02T20:54:12.717Z,84.40
2017-07-02T20:56:47.265Z,81.10
2017-07-02T20:59:22.274Z,81.20
2017-07-02T21:01:56.827Z,80.60
2017-07-02T21:04:31.504Z,81.00
2017-07-02T21:07:05.441Z,80.70
2017-07-02T21:09:39.270Z,83.00
2017-07-02T21:12:13.786Z,81.10
2017-07-02T21:14:47.769Z,81.00
2017-07-02T21:17:21.378Z,82.00
2017-07-02T21:19:55.203Z,81.50
2017-07-02T21:22:29.721Z,78.70
2017-07-02T21:25:03.706Z,78.60
2017-07-02T21:27:37.417Z,80.20
2017-07-02T21:30:12.033Z,82.20
2017-07-02T21:32:45.793Z,83.10
2017-07-02T21:35:19.736Z,83.60
2017-07-02T21:37:55.013Z,80.60
2017-07-02T21:40:29.008Z,80.60
2017-07-02T21:43:03.445Z,83.10
2017-07-02T21:45:37.525Z,83.00
2017-07-02T21:48:12.085Z,84.20
2017-07-02T21:50:46.953Z,85.70
2017-07-02T21:53:20.841Z,85.80
2017-07-02T21:55:55.364Z,83.40
2017-07-02T21:58:29.149Z,83.30
2017-07-02T22:01:04.693Z,85.30
2017-07-02T22:03:38.385Z,87.80
2017-07-02T22:06:12.218Z,83.90
2017-07-02T22:08:46.765Z,84.70
2017-07-02T22:11:20.457Z,87.00
2017-07-02T22:13:55.787Z,86.50
2017-07-02T22:16:30.552Z,87.20
2017-07-02T22:19:05.018Z,86.10
2017-07-02T22:21:39.054Z,85.70
2017-07-02T22:24:12.785Z,85.30
2017-07-02T22:26:47.221Z,85.60
2017-07-02T22:29:21.050Z,85.50
2017-07-02T22:31:55.842Z,84.40
2017-07-02T22:34:29.594Z,84.40
2017-07-02T22:37:04.205Z,83.80
2017-07-02T22:39:37.820Z,80.50
2017-07-02T22:42:12.401Z,79.00
2017-07-02T22:44:47.274Z,81.20
2017-07-02T22:47:21.260Z,80.40
2017-07-02T22:49:54.897Z,81.40
2017-07-02T22:52:29.465Z,81.90
2017-07-02T22:55:04.037Z,85.10
2017-07-02T22:57:38.041Z,84.80
2017-07-02T23:00:11.729Z,84.70
2017-07-02T23:02:46.477Z,82.80
2017-07-02T23:05:20.266Z,83.20
2017-07-02T23:07:54.973Z,83.70
2017-07-02T23:10:28.897Z,83.70
2017-07-02T23:13:02.657Z,82.40
2017-07-02T23:15:36.377Z,81.90
2017-07-02T23:18:10.884Z,82.40
2017-07-02T23:20:44.709Z,82.30
2017-07-02T23:23:19.308Z,80.90
2017-07-02T23:25:53.017Z,80.80
2017-07-02T23:28:28.753Z,80.30
2017-07-02T23:31:02.472Z,80.10
2017-07-02T23:33:36.233Z,80.80
2017-07-02T23:36:10.680Z,83.50
2017-07-02T23:38:45.454Z,83.40
2017-07-02T23:41:19.920Z,82.60
2017-07-02T23:43:53.970Z,82.50
2017-07-02T23:46:28.458Z,82.90
2017-07-02T23:49:02.541Z,82.70
2017-07-02T23:51:37.092Z,83.20
2017-07-02T23:54:10.960Z,83.70
2017-07-02T23:56:44.646Z,81.90
2017-07-02T23:59:20.386Z,82.80
